CDS weather

Childress Municipal Airport
Childress, Texas, United States

Public forecast

Using degrees Fahrenheit for public forecast. Weather courtesy of forecast.io.

METAR (pilot weather report)

Retrieved 2019/05/21 13:53 UTC (55 minutes ago):

KCDS 211353Z AUTO 25019G26KT 10SM CLR 14/06 A2958 RMK AO2 PK WND 25026/1350 SLP999 T01440056

TAF (pilot weather forecast)

Retrieved 2019/05/21 12:24 UTC (2 hours ago):

TAF KCDS 211122Z 2112/2212 24010KT P6SM BKN150 FM211700 25026G36KT P6SM SCT250 FM220100 21011KT P6SM SKC